Airfield :
LOGIN :

Register | Disclaimer

   EN    FR    IT 

 










Legend :    VFR   Marginal VFR   IFR   Intensive IFR   Very Intensive IFR
Visi :
Ceiling :
>= 8 km
>= 3000ft
5 to 8 km
1000 to 3000 ft
1500m to 5 km
500 to 1000 ft
800 to 1500m
200 to 500 ft
< 800m
< 200 ft
Symbols :   Thunderstorms  Fog  Heavy snow  Heavy precipitations  Wind > 20 kt
SIGMETs :     Misc.  Thunderstorms  Icing  Turbulence  Mountain Waves  Volcanic Ashes






- Airport Elevation : 1860 ft
- IATA code : GRX


LEGR - Granada

CURRENT METAR :
  • 301530Z AUTO 16014KT 120V200 CAVOK 31/06 Q1012

EXPIRED METARs :
  • 301500Z AUTO 17016KT 130V200 CAVOK 31/08 Q1012
  • 301430Z AUTO 16011KT 110V200 CAVOK 32/07 Q1012
  • 301400Z AUTO 16011KT 140V200 CAVOK 32/06 Q1012
  • 301330Z AUTO 19014G24KT 140V240 CAVOK 32/05 Q1013
  • 301300Z AUTO VRB01KT CAVOK 31/05 Q1013

TAF TAF LEGR
Valid from the 30 at 15:00 until the 31 at 15:00 UTC


301400Z 3015/3115 16010KT CAVOK TX33/3015Z TN14/3105Z
BECMG 3021/3023 VRB02KT
TEMPO 3112/3115 25010KT



MET'MAP, your aeronautical weather chart ! - Copyright ORBIFLY December 2007 - Disclaimer

ORBIFLY MET'MAP TEAM :

Programming & Development : Alexandra Zaïnal
Concept & original design : Baudouin d'Aumeries
Assistance for programming : Marc-Olivier Méhu
Technical & hardware support : Manuel Goepfert

Contact : metmap@orbifly.com




SOURCES & CREDITS :

   NOAA